createdAt,value
2018-09-25T00:01:39.761Z,3.20
2018-09-25T00:04:13.593Z,2.77
2018-09-25T00:06:47.251Z,2.92
2018-09-25T00:09:20.891Z,3.12
2018-09-25T00:11:54.740Z,3.22
2018-09-25T00:14:28.493Z,3.90
2018-09-25T00:17:02.092Z,4.07
2018-09-25T00:19:35.851Z,3.50
2018-09-25T00:22:09.821Z,3.50
2018-09-25T00:24:43.452Z,3.77
2018-09-25T00:27:17.214Z,3.40
2018-09-25T00:29:50.730Z,3.15
2018-09-25T00:32:24.406Z,3.10
2018-09-25T00:34:57.966Z,3.50
2018-09-25T00:37:31.668Z,3.12
2018-09-25T00:40:05.613Z,3.10
2018-09-25T00:42:39.356Z,3.10
2018-09-25T00:45:13.156Z,3.10
2018-09-25T00:47:46.982Z,3.10
2018-09-25T00:50:20.566Z,3.20
2018-09-25T00:52:54.301Z,3.40
2018-09-25T00:55:28.074Z,3.10
2018-09-25T00:58:01.929Z,3.50
2018-09-25T01:00:35.704Z,2.95
2018-09-25T01:03:09.271Z,3.80
2018-09-25T01:05:42.992Z,3.58
2018-09-25T01:08:16.562Z,3.20
2018-09-25T01:10:50.289Z,3.22
2018-09-25T01:13:24.058Z,3.40
2018-09-25T01:15:58.681Z,3.70
2018-09-25T01:18:32.301Z,3.50
2018-09-25T01:21:05.870Z,3.62
2018-09-25T01:23:39.413Z,3.58
2018-09-25T01:26:12.998Z,3.53
2018-09-25T01:28:46.657Z,3.33
2018-09-25T01:31:20.328Z,3.50
2018-09-25T01:33:53.943Z,3.45
2018-09-25T01:36:27.638Z,3.35
2018-09-25T01:39:01.524Z,3.30
2018-09-25T01:41:35.049Z,3.67
2018-09-25T01:44:09.192Z,3.70
2018-09-25T01:46:42.848Z,4.30
2018-09-25T01:49:16.483Z,3.80
2018-09-25T01:51:49.995Z,3.80
2018-09-25T01:54:23.780Z,3.98
2018-09-25T01:56:57.718Z,4.28
2018-09-25T01:59:31.537Z,3.50
2018-09-25T02:02:05.223Z,4.05
2018-09-25T02:04:39.149Z,3.55
2018-09-25T02:07:12.891Z,4.00
2018-09-25T02:09:46.732Z,4.12
2018-09-25T02:12:20.416Z,3.80
2018-09-25T02:14:54.267Z,4.08
2018-09-25T02:17:27.863Z,3.30
2018-09-25T02:20:01.329Z,3.45
2018-09-25T02:22:35.117Z,3.60
2018-09-25T02:25:08.671Z,3.85
2018-09-25T02:27:42.458Z,4.20
2018-09-25T02:30:16.117Z,3.75
2018-09-25T02:32:49.757Z,4.15
2018-09-25T02:35:23.437Z,3.70
2018-09-25T02:37:57.240Z,4.20
2018-09-25T02:40:30.975Z,4.10
2018-09-25T02:43:04.964Z,3.83
2018-09-25T02:45:38.534Z,4.00
2018-09-25T02:48:12.222Z,3.80
2018-09-25T02:50:45.976Z,4.20
2018-09-25T02:53:19.639Z,4.37
2018-09-25T02:55:53.521Z,4.75
2018-09-25T02:58:27.015Z,4.50
2018-09-25T03:01:00.733Z,3.90
2018-09-25T03:03:34.459Z,4.30
2018-09-25T03:06:08.215Z,4.10
2018-09-25T03:08:41.766Z,3.80
2018-09-25T03:11:15.523Z,4.15
2018-09-25T03:13:49.032Z,4.08
2018-09-25T03:16:22.854Z,3.65
2018-09-25T03:18:56.853Z,4.10
2018-09-25T03:21:30.593Z,4.30
2018-09-25T03:24:04.225Z,4.22
2018-09-25T03:26:37.938Z,4.33
2018-09-25T03:29:11.605Z,4.45
2018-09-25T03:31:45.142Z,4.15
2018-09-25T03:34:18.804Z,3.60
2018-09-25T03:36:52.524Z,4.10
2018-09-25T03:39:26.256Z,4.40
2018-09-25T03:42:01.469Z,4.15
2018-09-25T03:44:35.105Z,4.60
2018-09-25T03:47:08.618Z,4.30
2018-09-25T03:49:42.344Z,4.25
2018-09-25T03:52:15.972Z,4.40
2018-09-25T03:54:49.795Z,4.10
2018-09-25T03:57:23.479Z,4.50
2018-09-25T03:59:57.161Z,4.30
2018-09-25T04:02:31.027Z,4.55
2018-09-25T04:05:04.767Z,4.92
2018-09-25T04:07:38.537Z,4.00
2018-09-25T04:10:12.007Z,4.30
2018-09-25T04:12:45.829Z,4.75
2018-09-25T04:15:19.388Z,5.27
2018-09-25T04:17:52.984Z,4.50
2018-09-25T04:20:26.717Z,6.00
2018-09-25T04:23:00.415Z,5.60
2018-09-25T04:25:34.141Z,5.30
2018-09-25T04:28:08.197Z,6.50
2018-09-25T04:30:41.935Z,5.90
2018-09-25T04:33:15.590Z,5.95
2018-09-25T04:35:49.378Z,5.70
2018-09-25T04:38:23.140Z,5.55
2018-09-25T04:40:56.836Z,5.50
2018-09-25T04:43:30.593Z,6.97
2018-09-25T04:46:04.368Z,7.05
2018-09-25T04:48:38.180Z,5.87
2018-09-25T04:51:11.895Z,6.30
2018-09-25T04:53:45.346Z,5.85
2018-09-25T04:56:19.069Z,5.40
2018-09-25T04:58:52.847Z,5.67
2018-09-25T05:01:26.664Z,5.60
2018-09-25T05:04:00.285Z,5.30
2018-09-25T05:06:33.892Z,6.60
2018-09-25T05:09:07.616Z,8.93
2018-09-25T05:11:41.142Z,7.05
2018-09-25T05:14:14.903Z,7.10
2018-09-25T05:16:48.661Z,7.33
2018-09-25T05:19:22.265Z,7.92
2018-09-25T05:21:55.930Z,7.20
2018-09-25T05:24:29.521Z,7.03
2018-09-25T05:27:03.081Z,7.20
2018-09-25T05:29:36.673Z,6.80
2018-09-25T05:32:10.266Z,6.40
2018-09-25T05:34:44.182Z,6.17
2018-09-25T05:37:17.765Z,6.55
2018-09-25T05:39:51.443Z,6.50
2018-09-25T05:42:25.242Z,6.35
2018-09-25T05:44:58.808Z,7.55
2018-09-25T05:47:32.481Z,7.35
2018-09-25T05:50:06.259Z,7.20
2018-09-25T05:52:39.933Z,6.85
2018-09-25T05:55:13.694Z,6.20
2018-09-25T05:57:47.298Z,6.08
2018-09-25T06:00:21.447Z,6.47
2018-09-25T06:02:55.242Z,6.80
2018-09-25T06:05:28.923Z,5.97
2018-09-25T06:08:02.617Z,6.65
2018-09-25T06:10:36.206Z,6.40
2018-09-25T06:13:10.003Z,7.63
2018-09-25T06:15:50.673Z,10.63
2018-09-25T06:18:24.236Z,9.58
2018-09-25T06:20:57.803Z,10.15
2018-09-25T06:23:31.596Z,10.00
2018-09-25T06:26:05.205Z,8.70
2018-09-25T06:28:38.813Z,8.98
2018-09-25T06:31:12.385Z,8.60
2018-09-25T06:33:46.095Z,9.13
2018-09-25T06:36:19.849Z,9.33
2018-09-25T06:38:53.600Z,8.95
2018-09-25T06:41:27.377Z,9.28
2018-09-25T06:44:01.142Z,8.65
2018-09-25T06:46:35.016Z,9.38
2018-09-25T06:49:08.741Z,9.80
2018-09-25T06:51:42.262Z,10.00
2018-09-25T06:54:15.894Z,10.13
2018-09-25T06:56:49.665Z,9.98
2018-09-25T06:59:23.151Z,10.88
2018-09-25T07:01:56.698Z,10.60
2018-09-25T07:04:30.285Z,12.18
2018-09-25T07:07:03.830Z,10.50
2018-09-25T07:09:37.565Z,11.20
2018-09-25T07:12:11.285Z,11.00
2018-09-25T07:14:45.133Z,11.50
2018-09-25T07:17:18.662Z,12.70
2018-09-25T07:19:52.341Z,11.75
2018-09-25T07:22:26.236Z,11.00
2018-09-25T07:24:59.996Z,11.95
2018-09-25T07:27:33.699Z,12.33
2018-09-25T07:30:07.283Z,14.05
2018-09-25T07:32:40.881Z,13.20
2018-09-25T07:35:14.502Z,13.22
2018-09-25T07:37:48.279Z,12.98
2018-09-25T07:40:22.123Z,13.53
2018-09-25T07:42:55.673Z,13.25
2018-09-25T07:45:29.464Z,13.38
2018-09-25T07:48:03.124Z,14.85
2018-09-25T07:50:36.928Z,14.55
2018-09-25T07:53:10.606Z,15.40
2018-09-25T07:55:44.464Z,14.93
2018-09-25T07:58:18.167Z,15.20
2018-09-25T08:00:51.722Z,17.00
2018-09-25T08:03:25.526Z,18.33
2018-09-25T08:05:59.248Z,16.10
2018-09-25T08:08:32.982Z,16.97
2018-09-25T08:11:06.619Z,16.97
2018-09-25T08:13:41.430Z,16.50
2018-09-25T08:16:15.175Z,15.30
2018-09-25T08:18:48.965Z,17.25
2018-09-25T08:21:22.727Z,18.27
2018-09-25T08:23:56.339Z,17.00
2018-09-25T08:26:29.882Z,17.03
2018-09-25T08:29:03.595Z,17.15
2018-09-25T08:31:37.173Z,22.87
2018-09-25T08:34:10.942Z,32.20
2018-09-25T08:36:44.639Z,22.90
2018-09-25T08:39:18.414Z,20.62
2018-09-25T08:41:52.111Z,19.73
2018-09-25T08:44:25.846Z,20.82
2018-09-25T08:46:59.562Z,20.17
2018-09-25T08:49:33.212Z,15.15
2018-09-25T08:52:06.824Z,9.77
2018-09-25T08:54:40.454Z,8.80
2018-09-25T08:57:14.300Z,4.60
2018-09-25T08:59:48.212Z,4.90
2018-09-25T09:02:21.936Z,4.60
2018-09-25T09:04:55.683Z,4.10
2018-09-25T09:07:29.284Z,4.30
2018-09-25T09:10:03.051Z,5.15
2018-09-25T09:12:36.802Z,5.28
2018-09-25T09:15:10.751Z,5.00
2018-09-25T09:17:44.488Z,5.12
2018-09-25T09:20:18.033Z,4.03
2018-09-25T09:22:51.832Z,3.62
2018-09-25T09:25:25.352Z,4.20
2018-09-25T09:27:59.108Z,3.70
2018-09-25T09:30:32.798Z,3.80
2018-09-25T09:33:06.387Z,3.15
2018-09-25T09:35:40.160Z,3.55
2018-09-25T09:38:13.832Z,4.30
2018-09-25T09:40:47.492Z,2.80
2018-09-25T09:43:21.244Z,3.20
2018-09-25T09:45:54.823Z,3.42
2018-09-25T09:48:28.535Z,3.52
2018-09-25T09:51:02.108Z,3.60
2018-09-25T09:53:35.826Z,3.37
2018-09-25T09:56:09.652Z,3.70
2018-09-25T09:58:43.353Z,2.90
2018-09-25T10:01:16.881Z,2.90
2018-09-25T10:03:50.694Z,2.20
2018-09-25T10:06:24.871Z,2.80
2018-09-25T10:08:58.456Z,2.70
2018-09-25T10:11:32.287Z,2.20
2018-09-25T10:14:05.840Z,1.80
2018-09-25T10:16:39.421Z,9.43
2018-09-25T10:19:13.041Z,5.17
2018-09-25T10:21:46.735Z,4.00
2018-09-25T10:24:20.608Z,2.33
2018-09-25T10:26:54.781Z,2.10
2018-09-25T10:29:28.358Z,1.92
2018-09-25T10:35:38.982Z,2.35
2018-09-25T10:38:12.496Z,2.00
2018-09-25T10:40:46.296Z,2.50
2018-09-25T10:43:20.110Z,2.12
2018-09-25T10:45:53.905Z,1.57
2018-09-25T10:48:27.718Z,1.50
2018-09-25T10:51:01.515Z,1.72
2018-09-25T10:53:34.994Z,2.40
2018-09-25T10:56:08.544Z,1.67
2018-09-25T10:58:42.096Z,2.85
2018-09-25T11:01:16.791Z,2.00
2018-09-25T11:03:50.581Z,1.75
2018-09-25T11:06:24.150Z,3.23
2018-09-25T11:08:57.746Z,1.47
2018-09-25T11:11:31.589Z,1.42
2018-09-25T11:14:05.393Z,1.80
2018-09-25T11:16:39.124Z,1.60
2018-09-25T11:19:13.134Z,2.10
2018-09-25T11:21:47.258Z,1.87
2018-09-25T11:24:20.871Z,1.60
2018-09-25T11:26:54.621Z,1.20
2018-09-25T11:29:28.392Z,1.10
2018-09-25T11:32:02.111Z,1.52
2018-09-25T11:34:35.750Z,1.80
2018-09-25T11:37:09.592Z,1.70
2018-09-25T11:39:43.433Z,1.40
2018-09-25T11:42:17.269Z,1.40
2018-09-25T11:44:51.051Z,1.20
2018-09-25T11:47:24.691Z,1.40
2018-09-25T11:49:58.356Z,1.20
2018-09-25T11:52:32.056Z,1.37
2018-09-25T11:55:05.848Z,1.17
2018-09-25T11:57:39.610Z,1.40
2018-09-25T12:00:13.153Z,1.20
2018-09-25T12:02:46.750Z,1.40
2018-09-25T12:05:20.425Z,1.00
2018-09-25T12:07:54.280Z,1.20
2018-09-25T12:10:27.950Z,1.10
2018-09-25T12:13:01.697Z,1.30
2018-09-25T12:15:35.399Z,1.30
2018-09-25T12:18:09.770Z,1.30
2018-09-25T12:20:43.822Z,1.22
2018-09-25T12:23:17.528Z,1.30
2018-09-25T12:25:51.220Z,1.92
2018-09-25T12:28:24.947Z,1.40
2018-09-25T12:30:58.583Z,1.40
2018-09-25T12:33:32.338Z,1.30
2018-09-25T12:36:05.848Z,1.70
2018-09-25T12:38:39.383Z,1.00
2018-09-25T12:41:13.050Z,1.10
2018-09-25T12:43:46.842Z,0.88
2018-09-25T12:46:20.372Z,1.10
2018-09-25T12:48:54.069Z,1.10
2018-09-25T12:51:27.686Z,1.00
2018-09-25T12:54:01.461Z,1.10
2018-09-25T12:56:35.108Z,1.20
2018-09-25T12:59:08.596Z,0.90
2018-09-25T13:01:42.156Z,1.10
2018-09-25T13:04:15.795Z,1.10
2018-09-25T13:06:49.460Z,1.10
2018-09-25T13:09:23.206Z,1.20
2018-09-25T13:11:56.984Z,1.30
2018-09-25T13:14:30.448Z,1.27
2018-09-25T13:17:04.259Z,1.30
2018-09-25T13:19:37.799Z,1.60
2018-09-25T13:22:11.545Z,1.90
2018-09-25T13:24:45.281Z,2.33
2018-09-25T13:27:18.833Z,2.65
2018-09-25T13:29:52.549Z,2.90
2018-09-25T13:32:26.286Z,2.72
2018-09-25T13:35:01.079Z,2.80
2018-09-25T13:37:34.820Z,3.20
2018-09-25T13:40:08.467Z,3.20
2018-09-25T13:42:42.306Z,3.20
2018-09-25T13:45:15.768Z,3.20
2018-09-25T13:47:49.668Z,3.40
2018-09-25T13:50:23.305Z,3.30
2018-09-25T13:52:56.690Z,3.27
2018-09-25T13:55:30.416Z,3.60
2018-09-25T13:58:04.079Z,4.00
2018-09-25T14:00:37.803Z,3.50
2018-09-25T14:03:11.369Z,3.80
2018-09-25T14:05:45.083Z,4.10
2018-09-25T14:08:18.585Z,3.70
2018-09-25T14:10:52.244Z,3.67
2018-09-25T14:13:26.156Z,3.50
2018-09-25T14:15:59.804Z,3.00
2018-09-25T14:18:33.689Z,3.30
2018-09-25T14:21:07.351Z,2.90
2018-09-25T14:23:40.989Z,2.80
2018-09-25T14:26:14.697Z,3.35
2018-09-25T14:28:49.058Z,3.17
2018-09-25T14:31:22.692Z,3.00
2018-09-25T14:33:56.254Z,3.23
2018-09-25T14:36:32.776Z,3.60
2018-09-25T14:39:06.462Z,3.60
2018-09-25T14:41:40.121Z,6.10
2018-09-25T14:44:13.704Z,5.05
2018-09-25T14:46:47.469Z,4.35
2018-09-25T14:49:23.212Z,6.35
2018-09-25T14:51:56.934Z,4.67
2018-09-25T14:54:30.781Z,4.30
2018-09-25T14:57:04.464Z,4.58
2018-09-25T14:59:37.963Z,4.30
2018-09-25T15:02:11.495Z,4.40
2018-09-25T15:04:45.309Z,4.37
2018-09-25T15:07:19.164Z,4.27
2018-09-25T15:09:52.732Z,4.72
2018-09-25T15:12:26.378Z,4.40
2018-09-25T15:15:00.021Z,3.17
2018-09-25T15:17:33.537Z,7.20
2018-09-25T15:20:07.213Z,3.70
2018-09-25T15:22:41.084Z,3.58
2018-09-25T15:25:14.617Z,4.00
2018-09-25T15:27:49.366Z,4.00
2018-09-25T15:30:22.990Z,3.60
2018-09-25T15:32:56.750Z,3.50
2018-09-25T15:35:30.478Z,3.30
2018-09-25T15:38:03.943Z,3.40
2018-09-25T15:40:37.667Z,3.30
2018-09-25T15:43:11.460Z,3.35
2018-09-25T15:45:45.076Z,2.70
2018-09-25T15:48:18.920Z,2.80
2018-09-25T15:50:52.736Z,2.40
2018-09-25T15:53:26.406Z,4.70
2018-09-25T15:56:00.239Z,5.50
2018-09-25T15:58:34.046Z,6.05
2018-09-25T16:01:07.830Z,5.70
2018-09-25T16:03:41.411Z,5.70
2018-09-25T16:06:15.029Z,5.77
2018-09-25T16:08:48.792Z,5.65
2018-09-25T16:11:22.363Z,5.00
2018-09-25T16:13:56.024Z,5.45
2018-09-25T16:16:29.661Z,4.70
2018-09-25T16:19:03.239Z,4.53
2018-09-25T16:21:36.908Z,3.90
2018-09-25T16:24:10.798Z,3.10
2018-09-25T16:26:44.505Z,3.00
2018-09-25T16:29:18.136Z,2.73
2018-09-25T16:31:51.685Z,3.15
2018-09-25T16:34:25.501Z,2.37
2018-09-25T16:36:59.107Z,2.33
2018-09-25T16:39:32.782Z,2.20
2018-09-25T16:42:06.356Z,2.23
2018-09-25T16:44:40.099Z,2.35
2018-09-25T16:47:14.047Z,2.17
2018-09-25T16:49:47.735Z,2.87
2018-09-25T16:52:21.401Z,2.10
2018-09-25T16:54:55.072Z,2.30
2018-09-25T16:57:28.771Z,2.70
2018-09-25T17:00:02.359Z,2.80
2018-09-25T17:02:36.002Z,4.50
2018-09-25T17:05:09.518Z,3.97
2018-09-25T17:07:43.006Z,5.17
2018-09-25T17:10:16.809Z,5.15
2018-09-25T17:12:50.531Z,4.40
2018-09-25T17:15:24.224Z,5.10
2018-09-25T17:17:57.951Z,4.87
2018-09-25T17:20:31.517Z,5.00
2018-09-25T17:23:04.995Z,5.20
2018-09-25T17:25:38.564Z,5.00
2018-09-25T17:28:12.346Z,4.97
2018-09-25T17:30:45.838Z,5.30
2018-09-25T17:33:19.677Z,5.47
2018-09-25T17:35:53.278Z,5.42
2018-09-25T17:38:26.926Z,6.00
2018-09-25T17:41:00.479Z,6.10
2018-09-25T17:43:34.084Z,5.80
2018-09-25T17:46:07.822Z,6.58
2018-09-25T17:48:41.554Z,11.40
2018-09-25T17:51:15.143Z,15.00
2018-09-25T17:53:48.973Z,13.80
2018-09-25T17:56:22.786Z,16.93
2018-09-25T17:58:56.921Z,23.70
2018-09-25T18:01:30.664Z,14.55
2018-09-25T18:04:04.225Z,14.87
2018-09-25T18:06:38.002Z,14.93
2018-09-25T18:09:13.947Z,15.00
2018-09-25T18:11:47.758Z,15.05
2018-09-25T18:14:21.443Z,17.92
2018-09-25T18:16:55.104Z,18.23
2018-09-25T18:19:28.600Z,19.00
2018-09-25T18:22:02.249Z,12.45
2018-09-25T18:24:35.914Z,10.90
2018-09-25T18:27:09.511Z,11.85
2018-09-25T18:29:43.024Z,10.93
2018-09-25T18:32:17.122Z,9.25
2018-09-25T18:34:50.674Z,9.03
2018-09-25T18:37:24.470Z,9.63
2018-09-25T18:39:57.961Z,10.38
2018-09-25T18:42:31.451Z,10.65
2018-09-25T18:45:05.067Z,11.90
2018-09-25T18:47:38.849Z,12.40
2018-09-25T18:50:12.526Z,12.60
2018-09-25T18:52:46.168Z,12.50
2018-09-25T18:55:20.337Z,12.63
2018-09-25T18:57:53.951Z,13.58
2018-09-25T19:00:27.634Z,14.53
2018-09-25T19:03:01.090Z,15.60
2018-09-25T19:05:34.675Z,15.43
2018-09-25T19:08:08.345Z,14.85
2018-09-25T19:10:42.710Z,14.85
2018-09-25T19:13:17.807Z,14.97
2018-09-25T19:15:52.393Z,15.87
2018-09-25T19:18:25.992Z,17.50
2018-09-25T19:20:59.595Z,15.88
2018-09-25T19:23:33.128Z,16.37
2018-09-25T19:26:06.869Z,17.42
2018-09-25T19:28:40.406Z,20.80
2018-09-25T19:31:14.165Z,22.90
2018-09-25T19:33:47.881Z,17.82
2018-09-25T19:36:21.408Z,18.20
2018-09-25T19:38:55.216Z,17.37
2018-09-25T19:41:28.776Z,19.20
2018-09-25T19:44:02.465Z,21.57
2018-09-25T19:46:36.157Z,27.73
2018-09-25T19:49:10.563Z,39.92
2018-09-25T19:51:44.047Z,37.95
2018-09-25T19:54:17.636Z,30.55
2018-09-25T19:56:51.134Z,25.02
2018-09-25T19:59:24.700Z,22.85
2018-09-25T20:01:58.697Z,20.02
2018-09-25T20:04:32.421Z,18.80
2018-09-25T20:07:06.228Z,16.25
2018-09-25T20:09:40.071Z,14.43
2018-09-25T20:12:13.813Z,14.00
2018-09-25T20:14:48.177Z,13.22
2018-09-25T20:17:21.898Z,13.90
2018-09-25T20:19:55.437Z,12.98
2018-09-25T20:22:29.297Z,13.28
2018-09-25T20:25:03.051Z,13.22
2018-09-25T20:27:36.913Z,14.60
2018-09-25T20:30:10.757Z,13.00
2018-09-25T20:32:44.577Z,13.95
2018-09-25T20:35:18.017Z,13.30
2018-09-25T20:37:51.678Z,15.60
2018-09-25T20:40:25.182Z,17.27
2018-09-25T20:42:59.038Z,17.12
2018-09-25T20:45:32.685Z,17.70
2018-09-25T20:48:06.302Z,18.00
2018-09-25T20:50:39.851Z,18.80
2018-09-25T20:53:13.613Z,18.57
2018-09-25T20:55:47.158Z,17.25
2018-09-25T20:58:20.894Z,18.42
2018-09-25T21:00:54.360Z,16.95
2018-09-25T21:03:28.136Z,16.02
2018-09-25T21:06:01.853Z,16.57
2018-09-25T21:08:35.471Z,14.55
2018-09-25T21:11:09.161Z,14.40
2018-09-25T21:13:42.928Z,12.90
2018-09-25T21:16:16.471Z,12.35
2018-09-25T21:18:50.270Z,12.33
2018-09-25T21:21:23.968Z,11.20
2018-09-25T21:23:57.789Z,11.30
2018-09-25T21:26:31.341Z,11.10
2018-09-25T21:29:05.026Z,11.22
2018-09-25T21:31:38.791Z,11.70
2018-09-25T21:36:31.803Z,11.20
2018-09-25T21:39:05.736Z,10.80
2018-09-25T21:41:39.287Z,10.32
2018-09-25T21:44:12.841Z,11.00
2018-09-25T21:46:46.401Z,11.90
2018-09-25T21:49:19.905Z,11.68
2018-09-25T21:51:54.465Z,11.73
2018-09-25T21:54:27.966Z,11.30
2018-09-25T21:57:02.830Z,11.78
2018-09-25T21:59:36.567Z,12.13
2018-09-25T22:02:10.390Z,10.95
2018-09-25T22:04:44.374Z,11.00
2018-09-25T22:07:17.993Z,10.30
2018-09-25T22:09:51.799Z,11.00
2018-09-25T22:12:25.374Z,9.90
2018-09-25T22:14:58.993Z,9.95
2018-09-25T22:17:32.704Z,9.40
2018-09-25T22:20:06.530Z,9.50
2018-09-25T22:22:40.057Z,9.70
2018-09-25T22:25:13.965Z,9.53
2018-09-25T22:27:47.524Z,9.55
2018-09-25T22:30:21.338Z,9.88
2018-09-25T22:32:55.116Z,9.03
2018-09-25T22:35:28.835Z,9.10
2018-09-25T22:38:02.485Z,9.20
2018-09-25T22:40:36.265Z,9.38
2018-09-25T22:43:09.991Z,8.93
2018-09-25T22:45:43.496Z,9.30
2018-09-25T22:48:17.166Z,9.23
2018-09-25T22:50:50.961Z,9.58
2018-09-25T22:53:24.574Z,9.00
2018-09-25T22:55:58.386Z,8.63
2018-09-25T22:58:32.062Z,9.37
2018-09-25T23:01:05.903Z,9.93
2018-09-25T23:03:39.681Z,8.80
2018-09-25T23:06:13.484Z,9.48
2018-09-25T23:08:47.189Z,8.80
2018-09-25T23:11:20.983Z,9.50
2018-09-25T23:13:54.801Z,9.10
2018-09-25T23:16:28.869Z,8.50
2018-09-25T23:19:02.362Z,8.30
2018-09-25T23:21:36.120Z,8.60
2018-09-25T23:24:09.684Z,8.10
2018-09-25T23:26:43.400Z,8.23
2018-09-25T23:29:17.211Z,8.18
2018-09-25T23:31:51.041Z,8.38
2018-09-25T23:34:24.717Z,9.70
2018-09-25T23:36:58.561Z,10.20
2018-09-25T23:39:32.390Z,8.70
2018-09-25T23:42:06.131Z,8.80
2018-09-25T23:44:39.659Z,8.20
2018-09-25T23:47:12.307Z,7.70
2018-09-25T23:49:46.711Z,7.90
2018-09-25T23:52:33.418Z,7.62
2018-09-25T23:55:06.728Z,7.67
2018-09-25T23:57:42.425Z,7.92
